Rechercher aéroport 
image banner adimage banner adimage banner ad
image banner ad

CL16 - Turner Field/Amphibious Base

Situé à Coronado, United States

ICAO - CL16, IATA -

Données fournies par Airmate  

Information générale

Coordonnées: N32°40'42" W117°9'20"
Élévation : 12 feet MSL.
Variation magnétique : 14° East
Voir autres Aéroports à California

Données opérationnelles

Special qualification required
Heure actuelle UTC:
Heure actuelle locale:
METAR: KNZY 251552Z 21004KT 10SM OVC016 20/17 A2999 RMK AO2 SLP155 T02000167
TAF: TAF COR KNZY 2515/2615 VRB06KT 9999 VCSH BKN014 BKN100 QNH2993INS TEMPO 2515/2518 8000 -SHRA SCT012 BKN090 OVC200 BECMG 2518/2520 27010KT 9999 NSW SCT012 BKN120 QNH2992INS FM26000 VRB06KT 9999 VCSH BKN012 QNH2994INS TEMPO 2606/2612 6000 -SHRA BKN010 T23/2521Z T20/2606Z COR 1505 FS30167
Voir NOTAMs / SUP AIP / TFR affectant cet aéroport [VIEW]
Fréquences de communication: [VIEW]

Pistes:

Coordonnées de l'aéroport

Adresse: Coronado United States

Vue satellite de CL16